createdAt,value
2023-01-01T00:00:54.256Z,15.80
2023-01-01T00:03:23.413Z,15.80
2023-01-01T00:05:54.592Z,15.80
2023-01-01T00:08:24.075Z,15.80
2023-01-01T00:10:54.200Z,15.90
2023-01-01T00:13:22.716Z,15.90
2023-01-01T00:15:52.162Z,15.90
2023-01-01T00:18:20.699Z,15.90
2023-01-01T00:21:06.172Z,15.80
2023-01-01T00:23:36.689Z,15.90
2023-01-01T00:26:11.772Z,15.90
2023-01-01T00:28:40.302Z,15.90
2023-01-01T00:31:11.468Z,15.90
2023-01-01T00:33:40.823Z,15.80
2023-01-01T00:36:12.708Z,15.80
2023-01-01T00:38:42.698Z,15.80
2023-01-01T00:41:12.021Z,15.80
2023-01-01T00:43:41.089Z,15.80
2023-01-01T00:46:10.860Z,15.80
2023-01-01T00:48:40.352Z,15.80
2023-01-01T00:51:11.412Z,15.80
2023-01-01T00:53:40.695Z,15.80
2023-01-01T00:56:10.314Z,15.80
2023-01-01T00:58:39.979Z,15.80
2023-01-01T01:01:08.825Z,15.70
2023-01-01T01:03:44.787Z,15.70
2023-01-01T01:06:20.053Z,15.70
2023-01-01T01:08:49.241Z,15.70
2023-01-01T01:11:20.362Z,15.70
2023-01-01T01:13:51.573Z,15.70
2023-01-01T01:16:21.958Z,15.70
2023-01-01T01:18:52.951Z,15.70
2023-01-01T01:21:26.104Z,15.60
2023-01-01T01:23:55.821Z,15.60
2023-01-01T01:26:26.003Z,15.60
2023-01-01T01:28:56.684Z,15.50
2023-01-01T01:31:28.645Z,15.50
2023-01-01T01:33:57.994Z,15.50
2023-01-01T01:36:29.245Z,15.50
2023-01-01T01:38:59.700Z,15.50
2023-01-01T01:41:30.153Z,15.50
2023-01-01T01:44:01.785Z,15.50
2023-01-01T01:46:34.637Z,15.50
2023-01-01T01:49:14.571Z,15.60
2023-01-01T01:51:45.927Z,15.50
2023-01-01T01:54:19.221Z,15.50
2023-01-01T01:56:52.757Z,15.50
2023-01-01T01:59:23.966Z,15.50
2023-01-01T02:01:53.666Z,15.50
2023-01-01T02:04:22.782Z,15.50
2023-01-01T02:06:54.571Z,15.50
2023-01-01T02:09:23.226Z,15.50
2023-01-01T02:11:51.918Z,15.50
2023-01-01T02:14:21.477Z,15.50
2023-01-01T02:16:57.011Z,15.40
2023-01-01T02:19:35.430Z,15.40
2023-01-01T02:22:15.983Z,15.30
2023-01-01T02:25:09.998Z,15.30
2023-01-01T02:27:49.693Z,15.30
2023-01-01T02:30:20.346Z,15.30
2023-01-01T02:32:52.220Z,15.20
2023-01-01T02:35:36.611Z,15.20
2023-01-01T02:38:34.071Z,15.20
2023-01-01T02:41:05.601Z,15.10
2023-01-01T02:43:34.351Z,15.10
2023-01-01T02:46:08.126Z,15.10
2023-01-01T02:48:42.449Z,15.10
2023-01-01T02:51:19.025Z,15.10
2023-01-01T02:53:54.259Z,15.10
2023-01-01T02:56:36.387Z,15.10
2023-01-01T02:59:36.111Z,15.10
2023-01-01T03:02:14.288Z,15.10
2023-01-01T03:04:55.862Z,15.10
2023-01-01T03:07:30.895Z,15.10
2023-01-01T03:10:06.923Z,15.10
2023-01-01T03:12:43.879Z,15.10
2023-01-01T03:15:21.389Z,15.00
2023-01-01T03:17:56.736Z,15.00
2023-01-01T03:20:28.469Z,14.90
2023-01-01T03:23:01.436Z,15.00
2023-01-01T03:25:33.790Z,15.00
2023-01-01T03:28:08.067Z,14.90
2023-01-01T03:30:39.852Z,14.90
2023-01-01T03:33:15.915Z,14.90
2023-01-01T03:35:48.312Z,14.90
2023-01-01T03:38:20.690Z,14.80
2023-01-01T03:40:52.717Z,14.80
2023-01-01T03:43:25.615Z,14.80
2023-01-01T03:45:55.798Z,14.80
2023-01-01T03:48:25.769Z,14.80
2023-01-01T03:51:05.167Z,14.80
2023-01-01T03:53:41.207Z,14.80
2023-01-01T03:56:17.794Z,14.70
2023-01-01T03:58:54.468Z,14.70
2023-01-01T04:01:28.266Z,14.80
2023-01-01T04:04:00.410Z,14.70
2023-01-01T04:06:29.298Z,14.60
2023-01-01T04:09:00.519Z,14.60
2023-01-01T04:11:50.137Z,14.60
2023-01-01T04:14:29.462Z,14.60
2023-01-01T04:16:58.603Z,14.60
2023-01-01T04:19:29.256Z,14.60
2023-01-01T04:21:58.002Z,14.60
2023-01-01T04:24:26.887Z,14.60
2023-01-01T04:26:55.820Z,14.60
2023-01-01T04:29:24.464Z,14.60
2023-01-01T04:31:53.086Z,14.60
2023-01-01T04:34:21.549Z,14.60
2023-01-01T04:36:51.256Z,14.60
2023-01-01T04:39:19.577Z,14.60
2023-01-01T04:41:48.735Z,14.50
2023-01-01T04:44:17.070Z,14.50
2023-01-01T04:46:45.506Z,14.50
2023-01-01T04:49:13.885Z,14.50
2023-01-01T04:51:42.662Z,14.50
2023-01-01T04:54:12.475Z,14.50
2023-01-01T04:56:40.964Z,14.60
2023-01-01T04:59:09.877Z,14.50
2023-01-01T05:01:38.476Z,14.50
2023-01-01T05:04:07.011Z,14.50
2023-01-01T05:06:35.730Z,14.50
2023-01-01T05:09:04.251Z,14.50
2023-01-01T05:11:34.195Z,14.40
2023-01-01T05:14:03.379Z,14.40
2023-01-01T05:16:33.686Z,14.40
2023-01-01T05:19:02.459Z,14.30
2023-01-01T05:21:33.216Z,14.20
2023-01-01T05:24:03.207Z,14.20
2023-01-01T05:26:34.363Z,14.10
2023-01-01T05:29:03.585Z,14.10
2023-01-01T05:31:34.068Z,14.10
2023-01-01T05:36:31.905Z,14.20
2023-01-01T05:39:00.912Z,14.20
2023-01-01T05:41:31.501Z,14.20
2023-01-01T05:44:03.784Z,14.20
2023-01-01T05:46:32.889Z,14.20
2023-01-01T05:49:01.972Z,14.30
2023-01-01T05:54:01.152Z,14.20
2023-01-01T05:56:29.955Z,14.20
2023-01-01T05:58:58.492Z,14.20
2023-01-01T06:01:30.555Z,14.20
2023-01-01T06:04:00.464Z,14.20
2023-01-01T06:06:33.395Z,14.20
2023-01-01T06:09:03.822Z,14.30
2023-01-01T06:11:33.165Z,14.30
2023-01-01T06:14:02.675Z,14.30
2023-01-01T06:16:33.451Z,14.30
2023-01-01T06:19:01.880Z,14.30
2023-01-01T06:21:31.087Z,14.30
2023-01-01T06:24:00.278Z,14.30
2023-01-01T06:26:30.925Z,14.30
2023-01-01T06:29:00.942Z,14.40
2023-01-01T06:31:34.082Z,14.40
2023-01-01T06:34:06.804Z,14.40
2023-01-01T06:36:35.682Z,14.40
2023-01-01T06:39:04.686Z,14.40
2023-01-01T06:41:34.478Z,14.40
2023-01-01T06:44:05.632Z,14.40
2023-01-01T06:46:36.191Z,14.40
2023-01-01T06:49:07.732Z,14.40
2023-01-01T06:51:39.924Z,14.40
2023-01-01T06:54:09.685Z,14.40
2023-01-01T06:56:38.824Z,14.40
2023-01-01T06:59:07.644Z,14.30
2023-01-01T07:01:37.912Z,14.30
2023-01-01T07:04:12.466Z,14.30
2023-01-01T07:06:41.462Z,14.30
2023-01-01T07:09:10.309Z,14.30
2023-01-01T07:11:38.744Z,14.30
2023-01-01T07:14:07.155Z,14.30
2023-01-01T07:16:35.660Z,14.30
2023-01-01T07:19:04.449Z,14.20
2023-01-01T07:21:35.984Z,14.20
2023-01-01T07:24:05.918Z,14.20
2023-01-01T07:26:35.211Z,14.20
2023-01-01T07:29:07.863Z,14.10
2023-01-01T07:31:37.380Z,14.00
2023-01-01T07:34:06.706Z,13.90
2023-01-01T07:36:36.911Z,13.70
2023-01-01T07:39:05.488Z,13.30
2023-01-01T07:41:33.855Z,13.00
2023-01-01T07:44:02.390Z,12.70
2023-01-01T07:46:30.969Z,12.40
2023-01-01T07:48:59.414Z,12.20
2023-01-01T07:51:27.860Z,12.00
2023-01-01T07:54:03.944Z,12.00
2023-01-01T07:56:35.562Z,11.90
2023-01-01T07:59:03.960Z,11.80
2023-01-01T08:01:32.523Z,11.80
2023-01-01T08:04:01.021Z,11.80
2023-01-01T08:06:29.814Z,11.70
2023-01-01T08:08:59.598Z,11.70
2023-01-01T08:11:28.010Z,11.70
2023-01-01T08:13:56.373Z,11.70
2023-01-01T08:16:25.072Z,11.70
2023-01-01T08:18:53.516Z,11.70
2023-01-01T08:21:21.916Z,11.60
2023-01-01T08:23:50.355Z,11.60
2023-01-01T08:26:29.511Z,11.60
2023-01-01T08:28:58.080Z,11.60
2023-01-01T08:31:26.557Z,11.60
2023-01-01T08:33:55.334Z,11.60
2023-01-01T08:36:23.922Z,11.60
2023-01-01T08:38:52.542Z,11.60
2023-01-01T08:41:22.382Z,11.60
2023-01-01T08:43:51.155Z,11.60
2023-01-01T08:46:19.878Z,11.60
2023-01-01T08:48:48.380Z,11.60
2023-01-01T08:51:17.308Z,11.70
2023-01-01T08:53:50.917Z,11.70
2023-01-01T08:56:22.100Z,11.80
2023-01-01T08:58:50.588Z,11.80
2023-01-01T09:01:21.931Z,11.80
2023-01-01T09:03:50.598Z,11.80
2023-01-01T09:06:19.569Z,11.80
2023-01-01T09:08:48.180Z,11.80
2023-01-01T09:11:24.268Z,11.80
2023-01-01T09:13:57.096Z,11.70
2023-01-01T09:16:28.689Z,11.70
2023-01-01T09:19:00.412Z,11.80
2023-01-01T09:21:29.749Z,11.80
2023-01-01T09:23:58.125Z,11.80
2023-01-01T09:26:30.923Z,11.90
2023-01-01T09:29:00.858Z,11.90
2023-01-01T09:31:29.496Z,11.90
2023-01-01T09:33:58.453Z,11.90
2023-01-01T09:36:31.637Z,12.00
2023-01-01T09:39:02.734Z,12.00
2023-01-01T09:41:52.141Z,12.10
2023-01-01T09:44:34.716Z,12.10
2023-01-01T09:47:05.366Z,12.10
2023-01-01T09:49:39.755Z,12.10
2023-01-01T09:52:12.889Z,12.20
2023-01-01T09:54:46.326Z,12.20
2023-01-01T09:57:20.248Z,12.20
2023-01-01T09:59:48.965Z,12.20
2023-01-01T10:02:34.886Z,12.20
2023-01-01T10:05:11.458Z,12.30
2023-01-01T10:07:50.621Z,12.30
2023-01-01T10:10:30.105Z,12.30
2023-01-01T10:13:09.216Z,12.30
2023-01-01T10:15:42.029Z,12.30
2023-01-01T10:18:19.097Z,12.30
2023-01-01T10:20:52.799Z,12.20
2023-01-01T10:23:25.831Z,12.30
2023-01-01T10:25:57.503Z,12.30
2023-01-01T10:28:39.874Z,12.30
2023-01-01T10:31:18.062Z,12.30
2023-01-01T10:33:47.977Z,12.30
2023-01-01T10:36:19.411Z,12.40
2023-01-01T10:38:49.620Z,12.40
2023-01-01T10:41:20.215Z,12.50
2023-01-01T10:43:51.512Z,12.50
2023-01-01T10:46:31.371Z,12.50
2023-01-01T10:49:12.524Z,12.50
2023-01-01T10:51:47.069Z,12.60
2023-01-01T10:54:36.331Z,12.70
2023-01-01T10:57:16.305Z,12.70
2023-01-01T10:59:52.003Z,12.70
2023-01-01T11:02:25.595Z,12.80
2023-01-01T11:05:19.182Z,12.80
2023-01-01T11:07:49.989Z,12.80
2023-01-01T11:10:21.368Z,12.80
2023-01-01T11:13:08.141Z,12.80
2023-01-01T11:15:42.731Z,12.80
2023-01-01T11:18:16.068Z,12.90
2023-01-01T11:20:45.282Z,12.90
2023-01-01T11:23:31.315Z,12.90
2023-01-01T11:26:02.697Z,12.90
2023-01-01T11:28:34.921Z,13.00
2023-01-01T11:31:16.374Z,13.00
2023-01-01T11:33:48.146Z,13.10
2023-01-01T11:36:24.679Z,13.10
2023-01-01T11:39:08.464Z,13.20
2023-01-01T11:41:45.506Z,13.20
2023-01-01T11:44:24.458Z,13.20
2023-01-01T11:46:55.434Z,13.20
2023-01-01T11:49:27.148Z,13.20
2023-01-01T11:51:56.009Z,13.10
2023-01-01T11:54:34.319Z,13.10
2023-01-01T11:57:11.340Z,13.00
2023-01-01T11:59:47.265Z,13.00
2023-01-01T12:02:25.565Z,13.10
2023-01-01T12:05:02.728Z,13.00
2023-01-01T12:07:35.232Z,13.10
2023-01-01T12:10:13.335Z,13.10
2023-01-01T12:12:47.867Z,13.20
2023-01-01T12:15:22.352Z,13.20
2023-01-01T12:18:02.504Z,13.30
2023-01-01T12:20:35.143Z,13.40
2023-01-01T12:23:03.975Z,13.40
2023-01-01T12:25:40.015Z,13.50
2023-01-01T12:28:21.810Z,13.50
2023-01-01T12:30:56.983Z,13.60
2023-01-01T12:33:44.515Z,13.60
2023-01-01T12:36:25.952Z,13.70
2023-01-01T12:39:25.649Z,13.80
2023-01-01T12:42:04.662Z,13.80
2023-01-01T12:44:43.533Z,13.80
2023-01-01T12:47:24.202Z,13.80
2023-01-01T12:50:08.492Z,13.80
2023-01-01T12:52:50.106Z,13.90
2023-01-01T12:55:52.163Z,13.90
2023-01-01T12:58:27.195Z,13.90
2023-01-01T13:01:00.122Z,13.90
2023-01-01T13:03:33.292Z,13.90
2023-01-01T13:06:04.865Z,13.90
2023-01-01T13:08:35.030Z,13.90
2023-01-01T13:11:05.929Z,13.90
2023-01-01T13:13:34.667Z,13.90
2023-01-01T13:16:04.842Z,13.90
2023-01-01T13:18:40.302Z,13.90
2023-01-01T13:21:26.165Z,13.90
2023-01-01T13:23:56.839Z,13.80
2023-01-01T13:26:49.325Z,13.80
2023-01-01T13:29:50.433Z,13.80
2023-01-01T13:32:20.681Z,13.80
2023-01-01T13:35:19.622Z,13.80
2023-01-01T13:37:53.438Z,13.80
2023-01-01T13:40:53.383Z,13.90
2023-01-01T13:43:32.858Z,13.90
2023-01-01T13:46:13.133Z,13.90
2023-01-01T13:49:08.998Z,13.90
2023-01-01T13:52:05.208Z,13.80
2023-01-01T13:55:11.198Z,13.80
2023-01-01T13:58:24.567Z,13.80
2023-01-01T14:01:30.014Z,13.80
2023-01-01T14:04:04.065Z,13.80
2023-01-01T14:06:38.860Z,13.70
2023-01-01T14:09:11.841Z,13.70
2023-01-01T14:11:43.329Z,13.70
2023-01-01T14:14:29.951Z,13.70
2023-01-01T14:17:02.735Z,13.70
2023-01-01T14:19:32.237Z,13.70
2023-01-01T14:22:03.101Z,13.70
2023-01-01T14:24:31.686Z,13.60
2023-01-01T14:27:01.731Z,13.60
2023-01-01T14:29:34.788Z,13.60
2023-01-01T14:32:19.469Z,13.60
2023-01-01T14:34:48.002Z,13.60
2023-01-01T14:37:30.443Z,13.60
2023-01-01T14:40:16.209Z,13.50
2023-01-01T14:42:47.238Z,13.50
2023-01-01T14:45:19.227Z,13.50
2023-01-01T14:47:57.828Z,13.50
2023-01-01T14:50:35.400Z,13.60
2023-01-01T14:53:12.422Z,13.50
2023-01-01T14:55:54.065Z,13.60
2023-01-01T14:58:29.817Z,13.60
2023-01-01T15:01:21.694Z,13.50
2023-01-01T15:04:20.980Z,13.50
2023-01-01T15:07:00.358Z,13.50
2023-01-01T15:09:39.006Z,13.40
2023-01-01T15:12:23.252Z,13.30
2023-01-01T15:15:08.535Z,13.30
2023-01-01T15:18:00.672Z,13.30
2023-01-01T15:20:40.387Z,13.30
2023-01-01T15:23:17.907Z,13.20
2023-01-01T15:25:49.658Z,13.20
2023-01-01T15:28:23.066Z,13.20
2023-01-01T15:30:58.388Z,13.20
2023-01-01T15:33:32.665Z,13.20
2023-01-01T15:36:19.538Z,13.20
2023-01-01T15:38:54.940Z,13.20
2023-01-01T15:41:39.570Z,13.20
2023-01-01T15:44:21.508Z,13.10
2023-01-01T15:46:53.695Z,13.20
2023-01-01T15:49:30.202Z,13.20
2023-01-01T15:52:07.259Z,13.10
2023-01-01T15:54:50.281Z,13.10
2023-01-01T15:57:21.949Z,13.10
2023-01-01T15:59:53.933Z,13.10
2023-01-01T16:02:27.995Z,13.10
2023-01-01T16:05:06.110Z,13.10
2023-01-01T16:07:51.909Z,13.10
2023-01-01T16:10:29.854Z,13.10
2023-01-01T16:12:59.518Z,13.10
2023-01-01T16:15:30.850Z,13.10
2023-01-01T16:18:01.810Z,13.10
2023-01-01T16:20:44.848Z,13.10
2023-01-01T16:23:16.892Z,13.10
2023-01-01T16:25:46.098Z,13.10
2023-01-01T16:28:23.961Z,13.00
2023-01-01T16:30:53.292Z,13.00
2023-01-01T16:33:24.193Z,13.00
2023-01-01T16:35:59.959Z,13.00
2023-01-01T16:38:44.671Z,13.00
2023-01-01T16:41:18.667Z,12.90
2023-01-01T16:43:51.878Z,12.80
2023-01-01T16:46:20.603Z,12.70
2023-01-01T16:48:49.269Z,12.60
2023-01-01T16:51:24.540Z,12.60
2023-01-01T16:53:56.413Z,12.50
2023-01-01T16:56:26.817Z,12.40
2023-01-01T16:59:02.617Z,12.30
2023-01-01T17:01:34.049Z,12.20
2023-01-01T17:04:11.611Z,12.10
2023-01-01T17:06:53.986Z,12.00
2023-01-01T17:09:24.710Z,11.80
2023-01-01T17:12:03.818Z,11.70
2023-01-01T17:14:35.024Z,11.60
2023-01-01T17:17:07.173Z,11.50
2023-01-01T17:19:36.791Z,11.40
2023-01-01T17:22:07.346Z,11.40
2023-01-01T17:24:40.803Z,11.30
2023-01-01T17:27:11.877Z,11.30
2023-01-01T17:29:45.237Z,11.30
2023-01-01T17:32:19.035Z,11.30
2023-01-01T17:34:50.051Z,11.30
2023-01-01T17:37:20.815Z,11.20
2023-01-01T17:39:53.423Z,11.20
2023-01-01T17:42:23.812Z,11.20
2023-01-01T17:44:57.167Z,11.20
2023-01-01T17:47:32.653Z,11.10
2023-01-01T17:50:08.662Z,11.10
2023-01-01T17:52:41.945Z,11.10
2023-01-01T17:55:15.913Z,11.10
2023-01-01T17:57:49.838Z,11.00
2023-01-01T18:00:37.408Z,11.00
2023-01-01T18:03:22.558Z,11.00
2023-01-01T18:06:05.793Z,11.00
2023-01-01T18:08:43.375Z,11.00
2023-01-01T18:11:22.773Z,11.00
2023-01-01T18:14:03.169Z,11.00
2023-01-01T18:16:43.517Z,10.90
2023-01-01T18:19:15.420Z,10.90
2023-01-01T18:21:50.286Z,10.90
2023-01-01T18:24:19.400Z,10.90
2023-01-01T18:26:50.757Z,10.90
2023-01-01T18:29:23.605Z,10.90
2023-01-01T18:32:04.827Z,10.90
2023-01-01T18:34:39.862Z,10.80
2023-01-01T18:37:17.526Z,10.80
2023-01-01T18:39:53.898Z,10.80
2023-01-01T18:42:42.296Z,10.80
2023-01-01T18:45:27.840Z,10.80
2023-01-01T18:47:57.647Z,10.80
2023-01-01T18:50:46.931Z,10.90
2023-01-01T18:53:19.977Z,10.90
2023-01-01T18:55:54.891Z,10.90
2023-01-01T18:58:29.071Z,10.90
2023-01-01T19:01:05.410Z,10.90
2023-01-01T19:03:41.608Z,11.00
2023-01-01T19:06:32.390Z,10.90
2023-01-01T19:09:23.831Z,10.90
2023-01-01T19:12:13.925Z,10.90
2023-01-01T19:14:47.390Z,10.90
2023-01-01T19:17:30.496Z,10.90
2023-01-01T19:20:08.408Z,10.90
2023-01-01T19:23:02.739Z,10.90
2023-01-01T19:25:41.689Z,10.90
2023-01-01T19:28:52.736Z,10.90
2023-01-01T19:31:29.379Z,10.80
2023-01-01T19:33:59.987Z,10.80
2023-01-01T19:36:33.120Z,10.80
2023-01-01T19:39:11.935Z,10.70
2023-01-01T19:41:43.541Z,10.70
2023-01-01T19:44:25.426Z,10.80
2023-01-01T19:46:58.416Z,10.80
2023-01-01T19:49:27.580Z,10.80
2023-01-01T19:52:01.545Z,10.80
2023-01-01T19:54:38.036Z,10.70
2023-01-01T19:57:09.259Z,10.80
2023-01-01T19:59:45.792Z,10.80
2023-01-01T20:02:45.399Z,10.80
2023-01-01T20:05:37.919Z,10.80
2023-01-01T20:08:16.158Z,10.70
2023-01-01T20:10:49.484Z,10.70
2023-01-01T20:13:22.513Z,10.70
2023-01-01T20:16:08.955Z,10.70
2023-01-01T20:18:48.212Z,10.70
2023-01-01T20:21:35.252Z,10.70
2023-01-01T20:24:14.342Z,10.70
2023-01-01T20:26:52.848Z,10.70
2023-01-01T20:29:21.425Z,10.70
2023-01-01T20:31:55.355Z,10.70
2023-01-01T20:34:42.257Z,10.70
2023-01-01T20:37:35.336Z,10.70
2023-01-01T20:40:13.336Z,10.70
2023-01-01T20:42:45.238Z,10.70
2023-01-01T20:45:23.281Z,10.80
2023-01-01T20:47:52.886Z,10.80
2023-01-01T20:50:27.413Z,10.80
2023-01-01T20:53:01.916Z,10.80
2023-01-01T20:55:45.982Z,10.80
2023-01-01T20:58:15.260Z,10.80
2023-01-01T21:00:50.871Z,10.80
2023-01-01T21:03:23.660Z,10.70
2023-01-01T21:06:08.128Z,11.10
2023-01-01T21:08:48.584Z,10.70
2023-01-01T21:11:27.035Z,10.80
2023-01-01T21:13:57.841Z,10.80
2023-01-01T21:16:35.149Z,10.80
2023-01-01T21:19:09.222Z,10.80
2023-01-01T21:22:01.933Z,10.70
2023-01-01T21:24:40.425Z,10.70
2023-01-01T21:27:25.034Z,10.70
2023-01-01T21:30:01.375Z,10.70
2023-01-01T21:32:47.963Z,10.70
2023-01-01T21:35:36.073Z,10.70
2023-01-01T21:38:17.230Z,10.70
2023-01-01T21:40:59.209Z,10.70
2023-01-01T21:43:41.659Z,10.70
2023-01-01T21:46:36.118Z,10.70
2023-01-01T21:49:33.464Z,10.70
2023-01-01T21:52:06.854Z,10.80
2023-01-01T21:54:44.434Z,10.80
2023-01-01T21:57:22.228Z,10.80
2023-01-01T22:00:07.718Z,10.80
2023-01-01T22:02:47.220Z,10.80
2023-01-01T22:05:51.896Z,10.80
2023-01-01T22:08:27.121Z,10.80
2023-01-01T22:11:02.173Z,10.80
2023-01-01T22:13:31.147Z,10.90
2023-01-01T22:15:59.932Z,10.90
2023-01-01T22:18:39.332Z,11.00
2023-01-01T22:21:16.628Z,11.00
2023-01-01T22:23:52.619Z,11.00
2023-01-01T22:26:28.241Z,11.00
2023-01-01T22:29:10.755Z,11.00
2023-01-01T22:31:49.138Z,11.10
2023-01-01T22:34:25.700Z,11.10
2023-01-01T22:37:11.936Z,11.10
2023-01-01T22:39:49.731Z,11.10
2023-01-01T22:42:24.221Z,11.20
2023-01-01T22:45:00.860Z,11.20
2023-01-01T22:47:37.626Z,11.20
2023-01-01T22:50:10.193Z,11.20
2023-01-01T22:52:40.041Z,11.20
2023-01-01T22:55:09.786Z,11.20
2023-01-01T22:57:47.511Z,11.20
2023-01-01T23:00:25.434Z,11.20
2023-01-01T23:02:57.005Z,11.20
2023-01-01T23:05:26.842Z,11.20
2023-01-01T23:07:56.142Z,11.20
2023-01-01T23:10:24.735Z,11.20
2023-01-01T23:12:54.785Z,11.30
2023-01-01T23:15:44.555Z,11.30
2023-01-01T23:18:15.475Z,11.30
2023-01-01T23:20:47.026Z,11.30
2023-01-01T23:23:21.990Z,11.30
2023-01-01T23:25:53.349Z,11.30
2023-01-01T23:28:24.141Z,11.30
2023-01-01T23:30:59.837Z,11.30
2023-01-01T23:33:36.096Z,11.30
2023-01-01T23:36:07.536Z,11.30
2023-01-01T23:38:36.438Z,11.30
2023-01-01T23:41:07.892Z,11.30
2023-01-01T23:43:44.099Z,11.40
2023-01-01T23:46:19.522Z,11.30
2023-01-01T23:48:52.314Z,11.40
2023-01-01T23:51:22.046Z,11.40
2023-01-01T23:53:51.069Z,11.50
2023-01-01T23:56:25.424Z,11.50
2023-01-01T23:58:56.792Z,11.50
